Pleasant Plain, OH (45162)

3:22 PM EST on December 28, 2014 (GMT -0500)
Marion Township | Change Station
CLOSE
Current Station
Personal Weather Station
Location: Blanchester, OH
Elevation: 978 ft
Nearby Weather Stations

Elev 978 ft 39.27 °N, 83.98 °W | Updated 3 seconds ago

Overcast
Overcast
36.1 °F
Feels Like 36 °F
N
0.9
Wind Variable Wind from NW
Gusts 2.5 mph

Today
High -- | Low -- °F
--% Chance of Precip.
Yesterday
High -- | Low -- °F
Precip. -- in
7:55 AM 5:20 PM
Waxing Crescent, 51% visible
Pressure 30.13 in
Visibility 10.0 miles
Clouds Overcast 2100 ft
Windchill 36 °F
Dew Point 27 °F
Humidity 70%
Rainfall 0.07 in
Snow Depth Not available.
UV 0 out of 12
Pollen .10 out of 12
Air Quality Not available.
Flu Activity Not available.
METAR KI69 282014Z AUTO 34003KT 10SM OVC021 03/00 A3013 RMK AO1

More Conditions Fewer Conditions

Pressure 30.13 in
Visibility 10.0 miles
Clouds Overcast 2100 ft
Windchill 36 °F
Dew Point 27 °F
Humidity 70%
Rainfall 0.07 in
Snow Depth Not available.
UV 0 out of 12
Pollen .10 out of 12
Air Quality Not available.
Flu Activity Not available.
METAR KI69 282014Z AUTO 34003KT 10SM OVC021 03/00 A3013 RMK AO1

More Conditions Fewer Conditions

10-Day Weather Forecast

Almanac

Astronomy

Dec. 28, 2014 Rise Set
Actual Time
Civil Twilight
Nautical Twilight
Astronomical Twilight
Moon
Length of Visible Light
Length of Day
Tomorrow will be .
, % of the Moon is Illuminated

Today's Extremes

State Highs State Lows

Community

WunderPhotos

Upload Photos

1,781,411 photos uploaded!

WunderBlogs® & News

Nearby

Air Quality

  Air Quality AQ Index Pollutant
Not available.

Snow Depth

Station Depth Elevation

Earthquake Activity

City Distance Mag. Time & Date
Minimum magnitude displayed is 2.5.

Coastal Water Temperatures

Place Temperature

Nearby Weather Stations